Hauptseite
METAR-TAF:

METAR-TAF

Flughäfen :

Flughafen Glasgow

Glasgow, Schottland

Breite: 55-52N, Länge: 004-26W, Höhe: 8 m

Beobachtung

Neuester Wetterbericht von vor 23 Minuten, um 13:20 UTC
Wind 15 kt aus West/Südwest
Temperatur 13°C
Luftfeuchtigkeit 72%
Luftdruck 1014 hPa
Sichtweite 10 km oder mehr
Durchbrochene Bewölkung in der Höhe von 2600 ft
Geschlossene Wolkendecke in der Höhe von 3100 ft

METAR: EGPF 231320Z AUTO 25015KT 9999 BKN026 OVC031 13/08 Q1014

Zeit: 14:43 (13:43 UTC)

Prognose

Neuester Wetterbericht von vor 2 Stunden und 42 Minuten, um 11:01 UTC
Gültige Prognose vom 23 um 12 UTC bis 24 um 12 UTC
Wind 9 kt aus West/Südwest
Sichtweite 10 km oder mehr
Aufgelockert bewölkt in der Höhe von 3000 ft
Wahrscheinlichkeit 30% :
Zeitweise
vom 23 um 20 UTC bis 24 um 05 UTC
Durchbrochene Bewölkung in der Höhe von 1200 ft

TAF: EGPF 231101Z 2312/2412 25009KT 9999 SCT030 PROB30 TEMPO 2320/2405 BKN012

Wetterbeobachtungen und Prognosen von mehr als 4000 Flughäfen (METAR und TAF Bericht).

Die verfügbaren Stationen werden durch gelbe und rote Markierungen auf der Karte dargestellt.

Führen Sie die Maus auf sie, um den Namen der Station zu sehen.

Darauf klicken, um die Beobachtung von Wetterbeobachtungen und Prognosen zu sehen.

Um die Karte zu ändern : klicken Sie auf den grünen Tasten mit einem schwarzen Kreuz Zum Vergrößern, auf den grünen Button mit einem Gedankenstrich zu verkleinern, oder auf die grünen Pfeile für benachbarte Karten.


METAR-TAF: